Time;durP1;ratioP1;P1;durP2;ratioP2;P2;SDS_P1;SDS_P2;PMS_P1;PMS_P2;Temp;Humidity;BMP_temperature;BMP_pressure;BME280_temperature;BME280_humidity;BME280_pressure;Samples;Min_cycle;Max_cycle;Signal;HPM_P1;HPM_P2
2023/06/13 00:00:17;;;;;;;5.78;3.97;;;;;;;19.83;74.66;100540.63;679665;29;2484;-51
2023/06/13 00:00:38;;;;;;;5.80;3.78;;;;;;;19.80;74.40;100538.09;679132;29;1239;-48
2023/06/13 00:00:58;;;;;;;6.20;3.93;;;;;;;19.71;81.91;100537.53;680795;28;1746;-47
2023/06/13 00:01:18;;;;;;;6.35;4.13;;;;;;;19.72;77.61;100536.63;682513;29;1023;-50
2023/06/13 00:01:40;;;;;;;5.93;3.83;;;;;;;19.67;78.41;100535.94;682353;29;905;-47
2023/06/13 00:02:00;;;;;;;5.72;3.72;;;;;;;19.71;75.62;100539.34;680309;28;1553;-49
2023/06/13 00:02:22;;;;;;;6.90;4.03;;;;;;;19.72;75.52;100539.28;681207;28;1171;-50
2023/06/13 00:02:44;;;;;;;7.30;4.28;;;;;;;19.73;76.41;100534.84;680957;29;953;-48
2023/06/13 00:03:04;;;;;;;5.90;3.95;;;;;;;19.74;76.30;100539.19;680095;28;1645;-48
2023/06/13 00:03:26;;;;;;;6.27;3.90;;;;;;;19.73;76.92;100535.69;680610;29;830;-49
2023/06/13 00:03:47;;;;;;;6.70;4.07;;;;;;;19.79;74.60;100534.56;680688;29;917;-47
2023/06/13 00:04:08;;;;;;;6.18;3.80;;;;;;;19.76;76.74;100536.47;680429;28;1502;-51
2023/06/13 00:04:30;;;;;;;5.65;3.72;;;;;;;19.71;77.79;100537.53;680861;29;936;-47
2023/06/13 00:04:53;;;;;;;4.95;3.75;;;;;;;19.73;76.22;100535.69;680640;29;823;-50
2023/06/13 00:05:18;;;;;;;5.53;3.90;;;;;;;19.62;77.21;100532.66;681530;29;1027;-48
2023/06/13 00:05:46;;;;;;;5.65;3.97;;;;;;;19.65;77.98;100536.97;681491;29;1311;-49
2023/06/13 00:06:07;;;;;;;5.25;3.78;;;;;;;19.70;76.00;100546.44;680429;28;1495;-50
2023/06/13 00:06:29;;;;;;;5.70;3.70;;;;;;;19.74;76.06;100533.91;681177;29;964;-52
2023/06/13 00:06:50;;;;;;;5.90;3.70;;;;;;;19.68;78.10;100529.72;680847;28;952;-49
2023/06/13 00:07:12;;;;;;;6.13;3.80;;;;;;;19.65;78.99;100534.31;680770;28;1562;-50
2023/06/13 00:07:37;;;;;;;5.72;3.80;;;;;;;19.66;78.81;100536.91;682426;29;884;-49
2023/06/13 00:07:57;;;;;;;6.68;4.00;;;;;;;19.63;76.88;100542.31;680832;28;1478;-47
2023/06/13 00:08:18;;;;;;;5.40;3.58;;;;;;;19.63;76.35;100539.66;682777;29;1003;-47
2023/06/13 00:08:41;;;;;;;4.77;3.40;;;;;;;19.60;75.97;100539.81;682547;29;1004;-52
2023/06/13 00:09:02;;;;;;;6.13;3.72;;;;;;;19.65;76.65;100535.19;680385;28;1667;-51
2023/06/13 00:09:23;;;;;;;8.00;4.10;;;;;;;19.65;76.91;100529.03;681421;29;1199;-52
2023/06/13 00:09:43;;;;;;;6.93;4.10;;;;;;;19.60;76.01;100534.50;680678;29;837;-50
2023/06/13 00:10:07;;;;;;;6.63;4.03;;;;;;;19.65;77.03;100529.03;680584;28;928;-50
2023/06/13 00:10:27;;;;;;;5.90;3.78;;;;;;;19.74;75.07;100534.78;681698;29;1283;-49
2023/06/13 00:10:48;;;;;;;5.38;3.92;;;;;;;19.80;74.85;100538.09;681300;29;877;-48
2023/06/13 00:11:08;;;;;;;5.60;3.70;;;;;;;19.68;77.87;100537.69;680110;28;1506;-47
2023/06/13 00:11:29;;;;;;;5.72;4.13;;;;;;;19.71;75.76;100532.22;681713;29;1320;-51
2023/06/13 00:11:49;;;;;;;5.05;3.83;;;;;;;19.77;74.80;100538.19;680990;29;783;-49
2023/06/13 00:12:10;;;;;;;5.70;3.97;;;;;;;19.71;77.79;100540.19;679831;28;1514;-50
2023/06/13 00:12:32;;;;;;;5.50;3.80;;;;;;;19.78;74.15;100531.97;682385;28;1265;-50
2023/06/13 00:12:52;;;;;;;5.20;3.70;;;;;;;19.77;76.12;100535.56;680734;28;1960;-50
2023/06/13 00:13:14;;;;;;;5.60;3.80;;;;;;;19.66;80.00;100533.38;681793;29;771;-50
2023/06/13 00:13:34;;;;;;;5.77;3.97;;;;;;;19.60;81.01;100534.50;682328;29;1263;-52
2023/06/13 00:13:55;;;;;;;5.67;3.80;;;;;;;19.62;76.98;100532.66;681312;28;1621;-48
2023/06/13 00:14:17;;;;;;;5.63;3.78;;;;;;;19.54;79.39;100533.00;682050;29;1009;-51
2023/06/13 00:14:38;;;;;;;5.90;3.80;;;;;;;19.52;78.33;100534.00;681872;28;1246;-49
2023/06/13 00:15:01;;;;;;;5.85;3.80;;;;;;;19.60;76.52;100525.72;680227;28;898;-51
2023/06/13 00:15:21;;;;;;;6.10;3.88;;;;;;;19.54;77.88;100532.16;679780;29;1453;-53
2023/06/13 00:15:50;;;;;;;5.97;3.80;;;;;;;19.52;76.73;100534.88;681151;29;850;-51
2023/06/13 00:16:12;;;;;;;5.88;3.75;;;;;;;19.49;77.89;100536.78;680669;28;1538;-49
2023/06/13 00:16:32;;;;;;;6.13;3.83;;;;;;;19.46;79.28;100528.97;679948;29;1156;-49
2023/06/13 00:16:54;;;;;;;5.63;4.00;;;;;;;19.45;80.15;100528.09;678812;29;1557;-48
2023/06/13 00:17:15;;;;;;;5.70;3.92;;;;;;;19.45;77.93;100536.03;681298;29;1547;-51
2023/06/13 00:17:37;;;;;;;6.53;3.95;;;;;;;19.46;77.98;100535.13;682193;29;833;-49
2023/06/13 00:17:57;;;;;;;6.75;3.80;;;;;;;19.50;76.59;100534.06;680661;28;1633;-49
2023/06/13 00:18:22;;;;;;;5.93;3.87;;;;;;;19.47;78.46;100536.00;682452;29;845;-49
2023/06/13 00:18:44;;;;;;;6.65;3.97;;;;;;;19.46;79.08;100526.31;681681;29;893;-51
2023/06/13 00:19:05;;;;;;;5.90;3.90;;;;;;;19.49;77.75;100529.69;681014;28;1561;-47
2023/06/13 00:19:28;;;;;;;5.88;3.75;;;;;;;19.47;79.30;100536.00;680990;29;1029;-49
2023/06/13 00:19:48;;;;;;;6.00;3.72;;;;;;;19.46;79.14;100540.44;681825;29;1421;-51
2023/06/13 00:20:09;;;;;;;5.67;4.03;;;;;;;19.43;79.18;100540.56;678964;28;1526;-48
2023/06/13 00:20:30;;;;;;;5.75;4.00;;;;;;;19.44;78.49;100531.69;681392;28;814;-48
2023/06/13 00:20:54;;;;;;;5.78;3.90;;;;;;;19.40;78.07;100535.41;681250;29;1027;-50
2023/06/13 00:21:15;;;;;;;5.15;3.83;;;;;;;19.33;81.04;100539.25;681777;29;946;-49
2023/06/13 00:21:37;;;;;;;7.33;3.90;;;;;;;19.45;80.34;100536.03;680192;29;1310;-51
2023/06/13 00:21:58;;;;;;;5.85;3.80;;;;;;;19.37;83.07;100535.50;679506;28;1514;-51
2023/06/13 00:22:18;;;;;;;5.85;3.60;;;;;;;19.37;80.41;100540.81;680961;28;995;-50
2023/06/13 00:22:39;;;;;;;5.63;3.80;;;;;;;19.35;81.36;100532.94;680785;29;794;-49
2023/06/13 00:23:04;;;;;;;6.33;4.20;;;;;;;19.39;78.25;100533.69;679885;28;1439;-48
2023/06/13 00:23:27;;;;;;;5.70;4.00;;;;;;;19.37;79.89;100539.06;681859;28;1434;-48
2023/06/13 00:23:50;;;;;;;5.22;3.58;;;;;;;19.38;80.28;100538.13;680056;29;937;-50
2023/06/13 00:24:11;;;;;;;5.28;3.72;;;;;;;19.33;81.29;100537.47;681533;28;1515;-50
2023/06/13 00:24:34;;;;;;;6.10;3.97;;;;;;;19.36;79.13;100529.38;681315;28;990;-51
2023/06/13 00:24:54;;;;;;;6.15;3.90;;;;;;;19.41;79.51;100534.44;680546;28;1641;-48
2023/06/13 00:25:15;;;;;;;5.60;3.70;;;;;;;19.44;77.97;100533.47;682265;29;945;-49
2023/06/13 00:25:35;;;;;;;6.00;3.80;;;;;;;19.43;78.35;100534.41;682349;29;896;-48
2023/06/13 00:25:56;;;;;;;6.17;3.83;;;;;;;19.41;77.98;100531.81;680501;28;1494;-47
2023/06/13 00:26:16;;;;;;;6.00;4.03;;;;;;;19.40;78.14;100528.31;682453;29;1143;-52
2023/06/13 00:26:44;;;;;;;6.38;4.05;;;;;;;19.40;79.05;100538.06;680533;29;1486;-52
2023/06/13 00:27:06;;;;;;;6.45;4.05;;;;;;;19.41;79.74;100529.16;681086;28;1605;-50
2023/06/13 00:27:26;;;;;;;6.05;3.78;;;;;;;19.38;80.84;100532.81;681839;29;814;-48
2023/06/13 00:27:47;;;;;;;5.70;3.90;;;;;;;19.37;82.87;100535.50;681221;29;1385;-52
2023/06/13 00:28:07;;;;;;;5.90;3.87;;;;;;;19.30;83.41;100529.66;677797;29;1431;-49
2023/06/13 00:28:28;;;;;;;5.30;3.60;;;;;;;19.21;83.90;100533.53;680651;29;1458;-50
2023/06/13 00:28:48;;;;;;;5.43;4.00;;;;;;;19.20;85.78;100530.94;682408;29;937;-51
2023/06/13 00:29:09;;;;;;;6.83;4.03;;;;;;;19.27;81.42;100536.84;678170;29;1602;-52
2023/06/13 00:29:29;;;;;;;5.72;3.85;;;;;;;19.28;83.33;100531.47;679968;29;831;-49
2023/06/13 00:29:49;;;;;;;5.10;3.73;;;;;;;19.25;83.44;100531.63;676830;29;1082;-51
2023/06/13 00:30:10;;;;;;;5.97;3.87;;;;;;;19.17;88.40;100531.09;677826;29;1559;-49
2023/06/13 00:30:30;;;;;;;5.82;3.83;;;;;;;19.08;88.23;100529.69;677226;29;866;-48
2023/06/13 00:30:51;;;;;;;5.80;3.90;;;;;;;19.15;87.44;100535.56;677504;29;826;-51
2023/06/13 00:31:12;;;;;;;6.00;4.05;;;;;;;19.07;88.91;100529.78;675741;29;1531;-47
2023/06/13 00:31:32;;;;;;;5.83;3.97;;;;;;;19.03;86.75;100535.19;673899;29;1117;-50
2023/06/13 00:31:53;;;;;;;6.47;3.90;;;;;;;19.00;86.71;100532.66;672635;29;981;-50
2023/06/13 00:32:17;;;;;;;5.93;4.07;;;;;;;19.00;85.40;100530.00;675424;29;835;-49
2023/06/13 00:32:37;;;;;;;5.47;4.00;;;;;;;19.01;86.42;100534.41;677175;29;1907;-51
2023/06/13 00:32:59;;;;;;;5.00;3.73;;;;;;;19.11;83.48;100529.56;675709;29;1738;-49
2023/06/13 00:33:20;;;;;;;5.75;3.83;;;;;;;19.09;85.38;100522.59;676066;29;795;-48
2023/06/13 00:33:43;;;;;;;6.70;3.90;;;;;;;19.11;82.09;100526.91;677381;29;858;-51
2023/06/13 00:34:04;;;;;;;6.05;3.72;;;;;;;19.09;88.71;100525.25;678183;29;2188;-50
2023/06/13 00:34:24;;;;;;;6.40;3.70;;;;;;;19.07;85.26;100517.38;675867;29;1296;-51
2023/06/13 00:34:46;;;;;;;6.72;4.00;;;;;;;19.12;86.56;100530.41;678992;29;990;-49
2023/06/13 00:35:08;;;;;;;5.60;4.00;;;;;;;19.12;81.64;100530.41;677578;29;1973;-50
2023/06/13 00:35:28;;;;;;;5.25;3.83;;;;;;;19.12;81.40;100523.34;679626;29;918;-52
2023/06/13 00:35:48;;;;;;;5.23;3.87;;;;;;;19.17;80.85;100523.13;679753;29;1031;-53
2023/06/13 00:36:14;;;;;;;5.78;3.90;;;;;;;19.17;80.25;100524.00;677892;29;1535;-51
2023/06/13 00:36:37;;;;;;;5.30;3.90;;;;;;;19.22;80.82;100526.47;679578;29;1408;-49
2023/06/13 00:36:59;;;;;;;5.50;3.90;;;;;;;19.26;79.95;100520.09;677227;29;1494;-47
2023/06/13 00:37:20;;;;;;;6.93;3.90;;;;;;;19.24;79.74;100524.59;679475;29;842;-49
2023/06/13 00:37:40;;;;;;;7.22;3.90;;;;;;;19.21;81.55;100516.78;679515;29;1967;-48
2023/06/13 00:38:07;;;;;;;5.78;3.88;;;;;;;19.24;82.54;100519.28;678389;29;1700;-50
2023/06/13 00:38:28;;;;;;;6.60;3.88;;;;;;;19.28;79.24;100526.19;679070;29;945;-49
2023/06/13 00:38:49;;;;;;;5.80;4.13;;;;;;;19.36;81.00;100523.22;679709;29;5187;-51
2023/06/13 00:39:10;;;;;;;5.70;4.18;;;;;;;19.32;80.81;100521.63;680780;28;1119;-48
2023/06/13 00:39:31;;;;;;;5.22;3.85;;;;;;;19.33;80.49;100518.91;682027;29;937;-48
2023/06/13 00:39:51;;;;;;;5.20;3.72;;;;;;;19.34;81.50;100527.69;682500;29;1131;-52
2023/06/13 00:40:12;;;;;;;5.60;3.77;;;;;;;19.36;79.24;100521.41;679559;28;1138;-51
2023/06/13 00:40:33;;;;;;;5.37;3.70;;;;;;;19.35;80.39;100516.19;679854;28;1223;-48
2023/06/13 00:40:53;;;;;;;5.10;3.75;;;;;;;19.34;84.35;100531.22;678808;29;1236;-52
2023/06/13 00:41:14;;;;;;;5.70;3.90;;;;;;;19.29;84.33;100517.31;681564;29;842;-52
2023/06/13 00:41:34;;;;;;;5.95;3.88;;;;;;;19.26;81.61;100528.06;678994;29;1316;-50
2023/06/13 00:41:55;;;;;;;5.80;3.97;;;;;;;19.23;83.29;100513.16;677565;28;1620;-51
2023/06/13 00:42:15;;;;;;;5.57;3.73;;;;;;;19.27;80.38;100513.84;682482;28;1103;-51
2023/06/13 00:42:36;;;;;;;5.67;3.80;;;;;;;19.28;80.59;100514.72;682574;28;1457;-51
2023/06/13 00:42:57;;;;;;;6.28;3.67;;;;;;;19.28;80.45;100523.53;682395;28;1508;-50
2023/06/13 00:43:18;;;;;;;5.15;3.60;;;;;;;19.26;79.80;100520.09;683605;28;993;-50
2023/06/13 00:43:38;;;;;;;6.10;3.70;;;;;;;19.28;83.03;100522.69;683419;28;873;-53
2023/06/13 00:43:59;;;;;;;6.55;3.80;;;;;;;19.25;81.02;100521.03;682017;28;1533;-50
2023/06/13 00:44:19;;;;;;;6.20;3.90;;;;;;;19.21;81.73;100517.63;682358;28;1492;-50
2023/06/13 00:44:39;;;;;;;5.50;3.70;;;;;;;19.20;82.23;100518.59;683435;28;901;-50
2023/06/13 00:45:21;;;;;;;5.93;3.80;;;;;;;19.14;84.28;100517.97;682269;28;1596;-48
2023/06/13 00:45:42;;;;;;;6.05;4.07;;;;;;;19.10;86.10;100521.69;680559;29;1331;-49
2023/06/13 00:46:08;;;;;;;5.85;3.85;;;;;;;19.10;83.08;100521.69;679303;28;1656;-51
2023/06/13 00:46:32;;;;;;;5.63;3.90;;;;;;;19.16;82.89;100518.75;678574;29;1517;-53
2023/06/13 00:46:53;;;;;;;5.50;4.10;;;;;;;19.10;83.80;100517.25;675469;29;886;-50
2023/06/13 00:47:13;;;;;;;6.57;4.00;;;;;;;19.10;81.60;100516.38;672884;29;1235;-49
2023/06/13 00:47:36;;;;;;;6.17;4.00;;;;;;;19.08;83.63;100512.94;673623;29;917;-51
2023/06/13 00:48:03;;;;;;;5.30;3.90;;;;;;;19.03;84.47;100511.34;673210;29;2002;-51
2023/06/13 00:48:24;;;;;;;5.85;3.85;;;;;;;19.00;85.78;100511.47;676352;29;1551;-50
2023/06/13 00:48:48;;;;;;;6.45;3.83;;;;;;;18.98;84.77;100512.47;679821;29;834;-51
2023/06/13 00:49:13;;;;;;;6.45;4.07;;;;;;;18.92;87.16;100516.22;680142;29;1575;-49
2023/06/13 00:49:34;;;;;;;6.82;4.35;;;;;;;18.94;85.92;100516.16;677711;29;951;-51
2023/06/13 00:49:56;;;;;;;5.93;4.13;;;;;;;19.02;82.83;100516.69;679885;28;1616;-49
2023/06/13 00:50:18;;;;;;;7.30;3.83;;;;;;;19.13;82.06;100519.75;678629;29;932;-52
2023/06/13 00:50:44;;;;;;;5.80;3.70;;;;;;;19.07;86.58;100514.72;678091;29;1372;-50
2023/06/13 00:51:04;;;;;;;5.97;3.78;;;;;;;19.06;88.59;100513.00;677764;29;1570;-49
2023/06/13 00:51:27;;;;;;;6.03;3.85;;;;;;;18.99;87.90;100512.38;678241;29;932;-49
2023/06/13 00:51:48;;;;;;;6.90;3.67;;;;;;;18.97;87.13;100516.03;675762;29;1033;-48
2023/06/13 00:52:09;;;;;;;7.23;3.50;;;;;;;18.94;88.21;100511.75;676701;29;1768;-49
2023/06/13 00:52:29;;;;;;;7.00;4.22;;;;;;;18.88;84.79;100518.16;677639;29;1265;-51
2023/06/13 00:52:51;;;;;;;6.10;4.47;;;;;;;18.91;86.45;100514.50;679465;29;1911;-52
2023/06/13 00:53:17;;;;;;;5.57;3.90;;;;;;;18.86;85.96;100513.81;680671;28;1593;-52
2023/06/13 00:53:39;;;;;;;6.55;4.10;;;;;;;18.89;88.72;100513.72;679494;28;1009;-49
2023/06/13 00:54:01;;;;;;;6.43;4.00;;;;;;;18.88;87.94;100517.28;678542;29;1521;-51
2023/06/13 00:54:25;;;;;;;5.68;3.88;;;;;;;18.92;86.70;100507.44;676701;29;909;-50
2023/06/13 00:54:46;;;;;;;6.20;3.90;;;;;;;18.93;87.40;100515.31;677691;29;780;-50
2023/06/13 00:55:07;;;;;;;7.50;3.80;;;;;;;18.84;88.74;100508.59;677938;29;1325;-52
2023/06/13 00:55:27;;;;;;;6.50;3.85;;;;;;;18.85;88.95;100509.44;679351;29;1249;-47
2023/06/13 00:55:50;;;;;;;7.30;4.05;;;;;;;18.86;91.13;100514.66;679040;29;1419;-52
2023/06/13 00:56:10;;;;;;;6.55;3.92;;;;;;;18.91;87.10;100508.34;678088;29;1445;-51
2023/06/13 00:56:31;;;;;;;5.78;4.03;;;;;;;18.87;86.05;100515.53;678572;29;2807;-49
2023/06/13 00:56:51;;;;;;;5.63;4.00;;;;;;;18.96;89.21;100509.88;675005;29;1312;-49
2023/06/13 00:57:14;;;;;;;5.40;3.78;;;;;;;18.93;84.92;100510.00;675804;29;1608;-51
2023/06/13 00:57:34;;;;;;;5.50;4.00;;;;;;;18.97;84.17;100501.00;677608;29;965;-51
2023/06/13 00:57:58;;;;;;;6.15;3.97;;;;;;;18.95;84.46;100512.59;677982;29;1848;-49
2023/06/13 00:58:18;;;;;;;6.15;3.90;;;;;;;18.94;86.18;100502.91;677120;29;1302;-49
2023/06/13 00:58:39;;;;;;;6.03;4.07;;;;;;;18.97;85.38;100502.78;674786;29;1063;-49
2023/06/13 00:59:01;;;;;;;5.68;3.78;;;;;;;18.94;84.44;100500.28;675591;29;1565;-51
2023/06/13 00:59:22;;;;;;;5.13;3.90;;;;;;;18.96;82.67;100509.03;677118;29;901;-52
2023/06/13 00:59:42;;;;;;;5.07;3.50;;;;;;;18.95;84.82;100504.66;677686;29;985;-50
2023/06/13 01:00:04;;;;;;;5.10;3.60;;;;;;;18.95;88.99;100505.50;677375;29;1595;-50
2023/06/13 01:00:26;;;;;;;5.22;3.55;;;;;;;18.92;87.85;100504.78;681607;29;1411;-51
2023/06/13 01:00:48;;;;;;;5.38;3.60;;;;;;;18.85;89.88;100497.03;679724;29;1253;-50
2023/06/13 01:01:09;;;;;;;5.80;4.00;;;;;;;18.78;87.88;100505.34;680092;28;1020;-51
2023/06/13 01:01:30;;;;;;;5.50;4.10;;;;;;;18.79;86.42;100512.31;681818;29;1003;-52
2023/06/13 01:01:52;;;;;;;5.60;3.80;;;;;;;18.91;83.07;100506.56;681640;29;1160;-49
2023/06/13 01:02:15;;;;;;;6.30;4.20;;;;;;;18.94;84.27;100501.16;680584;28;1544;-49
2023/06/13 01:02:35;;;;;;;5.45;3.70;;;;;;;19.00;83.95;100503.53;680094;29;1391;-50
2023/06/13 01:02:58;;;;;;;4.90;3.63;;;;;;;18.91;88.49;100500.41;681027;28;1022;-48
2023/06/13 01:03:19;;;;;;;5.53;3.80;;;;;;;18.86;86.36;100505.88;681954;29;1094;-49
2023/06/13 01:03:45;;;;;;;6.10;4.03;;;;;;;18.86;86.37;100505.88;682107;29;853;-51
2023/06/13 01:04:09;;;;;;;6.13;3.97;;;;;;;18.90;90.09;100502.19;680665;28;1409;-50
2023/06/13 01:04:34;;;;;;;5.72;3.90;;;;;;;18.95;86.66;100507.28;680451;29;1450;-49
2023/06/13 01:04:57;;;;;;;6.18;3.90;;;;;;;18.92;89.19;100503.00;680297;28;1624;-49
2023/06/13 01:05:18;;;;;;;5.55;3.92;;;;;;;18.95;85.91;100499.34;680387;29;790;-50
2023/06/13 01:05:38;;;;;;;5.60;4.00;;;;;;;18.85;88.78;100496.19;680648;29;782;-52
2023/06/13 01:06:00;;;;;;;5.17;3.70;;;;;;;18.80;86.76;100503.47;680216;28;1493;-50
2023/06/13 01:06:24;;;;;;;5.53;4.00;;;;;;;18.77;88.35;100509.75;680075;29;976;-51
2023/06/13 01:06:45;;;;;;;5.80;4.38;;;;;;;18.71;89.72;100505.56;681479;29;885;-52
2023/06/13 01:07:10;;;;;;;5.75;4.18;;;;;;;18.75;91.96;100502.78;680600;28;1541;-51
2023/06/13 01:07:34;;;;;;;6.47;4.15;;;;;;;18.78;85.85;100497.38;681388;29;982;-51
2023/06/13 01:08:00;;;;;;;5.13;3.63;;;;;;;18.76;87.66;100504.50;680585;28;1534;-50
2023/06/13 01:08:23;;;;;;;4.88;3.75;;;;;;;18.72;91.51;100507.31;681737;29;889;-51
2023/06/13 01:08:45;;;;;;;5.65;3.78;;;;;;;18.66;90.15;100507.56;679636;29;1887;-52
2023/06/13 01:09:07;;;;;;;5.75;3.72;;;;;;;18.69;87.01;100502.13;677432;29;1709;-51
2023/06/13 01:09:27;;;;;;;6.40;3.92;;;;;;;18.70;91.93;100503.00;678946;29;1251;-50
2023/06/13 01:09:49;;;;;;;6.28;3.78;;;;;;;18.56;90.83;100500.91;679671;29;960;-48
2023/06/13 01:10:10;;;;;;;5.32;3.60;;;;;;;18.54;95.51;100500.13;675280;29;1486;-47
2023/06/13 01:10:32;;;;;;;5.33;3.70;;;;;;;18.55;92.96;100489.47;673385;29;1238;-50
2023/06/13 01:11:02;;;;;;;5.50;3.95;;;;;;;18.64;89.43;100500.59;676104;29;2019;-50
2023/06/13 01:11:47;;;;;;;6.00;4.03;;;;;;;18.61;91.45;100503.34;675081;29;828;-51
2023/06/13 01:12:17;;;;;;;5.40;3.95;;;;;;;18.57;90.13;100500.00;674629;29;1508;-51
2023/06/13 01:12:53;;;;;;;6.75;4.03;;;;;;;18.61;90.30;100500.72;678187;29;3619;-48
2023/06/13 01:13:28;;;;;;;6.15;3.88;;;;;;;18.55;92.22;100488.59;677374;29;1744;-52
2023/06/13 01:14:01;;;;;;;5.65;3.88;;;;;;;18.54;94.74;100497.47;679321;29;881;-49
2023/06/13 01:14:36;;;;;;;5.53;3.92;;;;;;;18.55;89.87;100494.75;679186;29;1012;-53
2023/06/13 01:15:01;;;;;;;5.18;3.67;;;;;;;18.62;89.48;100502.44;676981;28;1621;-47
2023/06/13 01:15:27;;;;;;;6.50;4.03;;;;;;;18.61;91.26;100498.06;681484;28;1470;-52
2023/06/13 01:16:11;;;;;;;6.00;3.95;;;;;;;18.59;91.32;100498.13;679764;29;889;-51
2023/06/13 01:16:50;;;;;;;6.20;3.92;;;;;;;18.55;91.04;100494.75;681287;29;1105;-47
2023/06/13 01:17:18;;;;;;;6.53;3.85;;;;;;;18.47;94.89;100491.56;678969;28;1000;-51
2023/06/13 01:17:49;;;;;;;5.43;3.78;;;;;;;18.44;92.11;100496.09;682232;28;2162;-52
2023/06/13 01:18:13;;;;;;;7.35;4.30;;;;;;;18.40;94.10;100500.69;680387;28;1929;-49
2023/06/13 01:18:38;;;;;;;6.07;4.30;;;;;;;18.44;93.78;100491.69;677768;29;1340;-51
2023/06/13 01:19:03;;;;;;;5.60;4.20;;;;;;;18.51;91.32;100493.16;677844;29;1451;-50
2023/06/13 01:19:34;;;;;;;6.40;4.00;;;;;;;18.51;90.72;100497.56;678899;29;1005;-50
2023/06/13 01:19:59;;;;;;;5.85;3.90;;;;;;;18.52;87.49;100500.16;676436;28;1641;-50
2023/06/13 01:20:20;;;;;;;6.10;3.97;;;;;;;18.51;89.19;100498.47;681003;29;929;-51
2023/06/13 01:20:44;;;;;;;5.80;3.78;;;;;;;18.44;92.74;100494.34;679764;29;1323;-48
2023/06/13 01:21:08;;;;;;;5.65;3.97;;;;;;;18.42;93.08;100495.31;680281;28;1569;-49
2023/06/13 01:21:32;;;;;;;5.47;3.78;;;;;;;18.46;92.53;100496.91;681016;29;976;-52
2023/06/13 01:21:56;;;;;;;5.38;3.80;;;;;;;18.39;94.66;100493.66;679365;29;862;-48
2023/06/13 01:22:19;;;;;;;5.65;3.80;;;;;;;18.37;94.53;100496.38;676650;29;1234;-51
2023/06/13 01:23:21;;;;;;;6.55;4.15;;;;;;;18.35;96.06;100495.56;677918;29;819;-47
2023/06/13 01:23:57;;;;;;;5.78;4.00;;;;;;;18.35;94.93;100495.56;672246;29;1319;-51
2023/06/13 01:24:34;;;;;;;5.70;3.92;;;;;;;18.25;94.50;100496.84;675555;29;1258;-48
2023/06/13 01:25:09;;;;;;;8.32;4.20;;;;;;;18.28;93.18;100496.72;677756;29;1708;-50
2023/06/13 01:25:43;;;;;;;7.20;3.90;;;;;;;18.31;96.32;100493.09;680721;29;844;-49
2023/06/13 01:26:13;;;;;;;6.25;3.88;;;;;;;18.37;94.86;100498.13;677212;29;2179;-50
2023/06/13 01:26:48;;;;;;;5.38;3.85;;;;;;;18.34;97.80;100493.81;682013;29;1248;-49
2023/06/13 01:27:12;;;;;;;5.72;3.92;;;;;;;18.35;97.00;100492.91;677596;29;1522;-49
2023/06/13 01:27:33;;;;;;;5.53;4.00;;;;;;;18.28;95.77;100491.44;679711;29;1453;-51
2023/06/13 01:27:56;;;;;;;5.30;3.90;;;;;;;18.26;93.85;100497.69;678989;29;1064;-52
2023/06/13 01:28:17;;;;;;;5.80;4.20;;;;;;;18.21;94.05;100500.53;680659;29;929;-49
2023/06/13 01:28:43;;;;;;;5.35;3.60;;;;;;;18.18;91.35;100490.94;679582;29;2070;-49
2023/06/13 01:29:05;;;;;;;5.85;3.85;;;;;;;18.21;93.83;100493.44;679139;28;1078;-50
2023/06/13 01:29:28;;;;;;;5.80;3.85;;;;;;;18.23;96.17;100498.69;677208;29;901;-50
2023/06/13 01:29:52;;;;;;;6.03;4.00;;;;;;;18.20;95.49;100491.72;676853;29;1292;-51
2023/06/13 01:30:13;;;;;;;5.78;4.20;;;;;;;18.18;96.67;100490.94;675325;29;1642;-51
2023/06/13 01:30:35;;;;;;;6.15;4.00;;;;;;;18.21;95.77;100500.53;677479;29;1253;-51
2023/06/13 01:30:56;;;;;;;6.20;4.20;;;;;;;18.16;96.54;100492.75;676141;29;1003;-48
2023/06/13 01:31:17;;;;;;;6.30;4.03;;;;;;;18.20;96.92;100496.16;679033;29;1776;-51
2023/06/13 01:31:40;;;;;;;5.93;3.90;;;;;;;18.16;97.15;100487.47;679314;29;1336;-50
2023/06/13 01:32:03;;;;;;;6.32;3.92;;;;;;;18.14;94.91;100491.13;678452;28;2134;-52
2023/06/13 01:32:25;;;;;;;5.82;4.00;;;;;;;18.12;95.64;100495.59;677284;29;1232;-49
2023/06/13 01:32:47;;;;;;;5.82;3.85;;;;;;;18.13;96.30;100492.88;678946;29;2288;-52
2023/06/13 01:33:09;;;;;;;5.85;4.07;;;;;;;18.06;93.92;100487.91;677372;29;2018;-50
2023/06/13 01:33:30;;;;;;;6.35;3.92;;;;;;;17.99;98.85;100496.06;678363;29;1088;-52
2023/06/13 01:33:52;;;;;;;7.57;3.93;;;;;;;17.99;95.43;100495.22;679324;29;944;-53
2023/06/13 01:34:14;;;;;;;5.82;4.10;;;;;;;18.07;93.13;100502.84;678730;29;1778;-50
2023/06/13 01:34:35;;;;;;;5.80;3.90;;;;;;;18.03;94.81;100497.66;680476;29;1378;-51
2023/06/13 01:34:56;;;;;;;6.03;3.85;;;;;;;18.09;98.41;100488.63;678056;28;1632;-51
2023/06/13 01:35:17;;;;;;;6.75;3.78;;;;;;;18.07;99.56;100500.19;681245;29;814;-49
2023/06/13 01:35:39;;;;;;;7.03;4.20;;;;;;;18.04;96.75;100502.06;677085;29;929;-49
2023/06/13 01:36:00;;;;;;;5.72;4.05;;;;;;;18.04;96.13;100495.88;675362;29;1516;-50
2023/06/13 01:36:21;;;;;;;6.40;4.10;;;;;;;18.01;95.95;100494.25;674122;29;1548;-52
2023/06/13 01:36:41;;;;;;;7.50;4.17;;;;;;;17.99;98.08;100496.06;673822;29;1195;-49
2023/06/13 01:37:03;;;;;;;5.68;4.07;;;;;;;17.98;95.69;100494.34;675697;29;1617;-53
2023/06/13 01:37:23;;;;;;;6.00;3.90;;;;;;;18.00;95.23;100497.78;676852;29;960;-52
2023/06/13 01:37:44;;;;;;;7.63;4.05;;;;;;;17.99;94.88;100496.06;677259;29;1260;-48
2023/06/13 01:38:06;;;;;;;7.38;4.00;;;;;;;17.98;95.79;100499.63;675302;29;1512;-50
2023/06/13 01:38:30;;;;;;;6.85;3.88;;;;;;;17.96;95.78;100504.13;677580;29;1315;-53
2023/06/13 01:38:52;;;;;;;6.18;4.03;;;;;;;17.89;95.25;100499.97;677295;29;5180;-48
2023/06/13 01:39:12;;;;;;;5.55;3.97;;;;;;;17.87;98.37;100504.44;674587;29;2028;-51
2023/06/13 01:39:35;;;;;;;5.85;3.90;;;;;;;17.83;98.38;100493.13;670134;29;1434;-51
2023/06/13 01:39:55;;;;;;;5.80;4.07;;;;;;;17.85;100.00;100503.66;669308;29;1508;-49
2023/06/13 01:40:16;;;;;;;6.87;4.30;;;;;;;17.85;98.80;100503.66;671865;29;1246;-50
2023/06/13 01:40:37;;;;;;;6.70;4.20;;;;;;;17.85;98.86;100493.06;669274;29;841;-48
2023/06/13 01:40:58;;;;;;;6.33;4.03;;;;;;;17.91;97.12;100502.53;669632;29;1650;-49
2023/06/13 01:41:18;;;;;;;6.30;4.10;;;;;;;17.87;99.38;100497.38;672789;29;1361;-52
2023/06/13 01:41:39;;;;;;;6.77;4.20;;;;;;;17.86;97.60;100500.06;679097;29;1132;-51
2023/06/13 01:41:59;;;;;;;5.72;3.90;;;;;;;17.82;95.46;100499.31;678439;29;1798;-51
2023/06/13 01:42:20;;;;;;;6.43;4.13;;;;;;;17.80;97.60;100495.88;677463;29;1566;-49
2023/06/13 01:42:40;;;;;;;6.78;4.07;;;;;;;17.86;100.00;100500.06;679029;29;1260;-49
2023/06/13 01:43:01;;;;;;;5.70;4.10;;;;;;;17.88;98.55;100498.22;678295;29;1562;-52
2023/06/13 01:43:21;;;;;;;5.88;4.22;;;;;;;17.88;97.52;100495.59;676804;29;1153;-52
2023/06/13 01:43:41;;;;;;;5.67;4.17;;;;;;;17.87;97.79;100499.16;676738;29;858;-53
2023/06/13 01:44:04;;;;;;;5.50;4.00;;;;;;;17.85;99.21;100498.34;675852;29;1769;-49
2023/06/13 01:44:25;;;;;;;6.20;4.30;;;;;;;17.85;96.91;100498.34;679347;29;1231;-50
2023/06/13 01:44:45;;;;;;;6.07;4.10;;;;;;;17.76;99.94;100503.97;676529;29;860;-50
2023/06/13 01:45:06;;;;;;;5.63;4.00;;;;;;;17.85;95.37;100499.22;675608;29;1567;-49
2023/06/13 01:45:27;;;;;;;5.82;3.90;;;;;;;17.87;97.08;100499.16;676695;29;1214;-51
2023/06/13 01:45:49;;;;;;;6.05;3.88;;;;;;;17.86;97.07;100493.00;676831;29;1343;-49
2023/06/13 01:46:16;;;;;;;5.35;3.85;;;;;;;17.85;96.58;100498.34;675853;29;1465;-50
2023/06/13 01:47:07;;;;;;;6.78;3.80;;;;;;;17.81;95.88;100494.94;678847;29;1215;-50
2023/06/13 01:47:35;;;;;;;5.47;3.80;;;;;;;17.82;96.59;100493.16;680995;29;1362;-51
2023/06/13 01:48:34;;;;;;;6.30;3.95;;;;;;;17.79;98.53;100502.09;677715;29;1015;-50
2023/06/13 01:49:19;;;;;;;6.13;4.20;;;;;;;17.77;98.37;100500.41;678688;29;921;-52
2023/06/13 01:50:05;;;;;;;7.07;4.30;;;;;;;17.74;98.02;100495.25;679277;29;916;-48
2023/06/13 01:50:35;;;;;;;6.55;4.10;;;;;;;17.73;95.06;100496.16;678267;29;1548;-49
2023/06/13 01:51:19;;;;;;;6.63;4.35;;;;;;;17.75;94.17;100502.25;679210;28;1525;-50
2023/06/13 01:52:00;;;;;;;5.60;4.03;;;;;;;17.75;93.44;100500.47;680851;29;1640;-53